Time;durP1;ratioP1;P1;durP2;ratioP2;P2;SDS_P1;SDS_P2;PMS_P1;PMS_P2;Temp;Humidity;BMP_temperature;BMP_pressure;BME280_temperature;BME280_humidity;BME280_pressure;Samples;Min_cycle;Max_cycle;Signal;HPM_P1;HPM_P2
2021/05/18 00:00:39;;;;;;;0.90;0.57;;;;;;;7.22;79.94;95227.22;5017617;28;20225;-79
2021/05/18 00:03:05;;;;;;;1.37;0.57;;;;;;;7.19;79.91;95232.69;5017618;28;20268;-78
2021/05/18 00:05:31;;;;;;;2.53;0.60;;;;;;;7.19;80.09;95227.50;5034170;28;20182;-78
2021/05/18 00:07:59;;;;;;;3.40;0.53;;;;;;;7.20;80.36;95232.53;5018874;28;20210;-79
2021/05/18 00:13:12;;;;;;;0.83;0.40;;;;;;;7.28;80.02;95242.19;5036573;28;20236;-79
2021/05/18 00:15:38;;;;;;;0.83;0.50;;;;;;;7.26;78.87;95244.91;5019929;28;20186;-79
2021/05/18 00:18:04;;;;;;;0.50;0.50;;;;;;;7.26;78.76;95244.09;5020036;28;20744;-79
2021/05/18 00:20:29;;;;;;;1.20;0.87;;;;;;;7.23;79.13;95244.34;5036519;28;20210;-78
2021/05/18 00:22:55;;;;;;;0.70;0.60;;;;;;;7.24;78.87;95243.41;5035784;28;20207;-80
2021/05/18 00:25:20;;;;;;;1.63;0.50;;;;;;;7.17;78.98;95240.56;5036442;28;20178;-79
2021/05/18 00:27:46;;;;;;;0.40;0.40;;;;;;;7.24;78.79;95249.38;5019873;28;20545;-78
2021/05/18 00:30:12;;;;;;;0.50;0.40;;;;;;;7.25;79.18;95253.63;5036237;28;20182;-79
2021/05/18 00:32:39;;;;;;;0.53;0.43;;;;;;;7.30;79.06;95246.28;5037140;28;20204;-78
2021/05/18 00:35:06;;;;;;;0.77;0.47;;;;;;;7.27;79.15;95248.31;5020154;28;20179;-79
2021/05/18 00:37:32;;;;;;;0.77;0.40;;;;;;;7.31;79.00;95252.25;5036984;28;20195;-79
2021/05/18 00:39:57;;;;;;;1.00;0.50;;;;;;;7.30;78.99;95251.44;5035924;28;20658;-79
2021/05/18 00:42:23;;;;;;;0.50;0.50;;;;;;;7.32;79.32;95254.69;5033813;28;20229;-79
2021/05/18 00:44:50;;;;;;;0.60;0.60;;;;;;;7.37;79.28;95268.03;5033537;28;20179;-79
2021/05/18 00:47:15;;;;;;;1.73;0.57;;;;;;;7.43;79.71;95263.28;5017351;28;20185;-78
2021/05/18 00:49:41;;;;;;;2.10;0.50;;;;;;;7.43;79.69;95251.19;5033526;28;20269;-79
2021/05/18 00:52:06;;;;;;;0.80;0.60;;;;;;;7.50;79.93;95260.00;5018429;28;20241;-79
2021/05/18 00:54:41;;;;;;;2.10;0.67;;;;;;;7.47;80.20;95257.69;4998166;28;20232;-78
2021/05/18 00:59:53;;;;;;;1.67;0.60;;;;;;;7.38;81.21;95264.50;5014205;28;20185;-76
2021/05/18 01:02:18;;;;;;;0.97;0.50;;;;;;;7.37;81.36;95256.88;5012857;28;20234;-76
2021/05/18 01:04:44;;;;;;;0.80;0.50;;;;;;;7.37;81.60;95262.88;5013506;28;20670;-76
2021/05/18 01:07:10;;;;;;;1.13;0.60;;;;;;;7.27;81.77;95261.22;5013071;28;20183;-78
2021/05/18 01:09:36;;;;;;;0.73;0.60;;;;;;;7.27;81.71;95263.81;5014266;28;20594;-77
2021/05/18 01:12:01;;;;;;;0.50;0.50;;;;;;;7.19;82.00;95254.16;5012610;28;20191;-78
2021/05/18 01:14:26;;;;;;;0.57;0.50;;;;;;;7.21;81.93;95256.59;5012878;28;20211;-77
2021/05/18 01:16:52;;;;;;;0.57;0.57;;;;;;;7.20;81.39;95252.38;5013546;28;20551;-78
2021/05/18 01:19:24;;;;;;;0.83;0.50;;;;;;;7.09;81.52;95248.16;5013422;28;20282;-77
2021/05/18 01:21:49;;;;;;;1.43;0.50;;;;;;;7.10;81.19;95245.44;5012315;28;20278;-77
2021/05/18 01:24:18;;;;;;;0.43;0.43;;;;;;;7.01;81.80;95242.84;5012911;28;20278;-78
2021/05/18 01:26:45;;;;;;;0.50;0.50;;;;;;;6.98;81.89;95243.09;4996695;28;20175;-78
2021/05/18 01:29:12;;;;;;;0.40;0.40;;;;;;;6.97;81.24;95252.59;4997450;28;20726;-77
2021/05/18 01:31:38;;;;;;;0.60;0.50;;;;;;;6.95;81.60;95246.75;4997505;28;20207;-79
2021/05/18 01:34:04;;;;;;;0.40;0.40;;;;;;;6.94;80.99;95245.13;5014392;28;20270;-78
2021/05/18 01:36:34;;;;;;;0.40;0.40;;;;;;;6.93;81.09;95248.66;4997741;28;20274;-77
2021/05/18 01:44:09;;;;;;;0.37;0.37;;;;;;;6.71;81.51;95244.50;5014156;28;20178;-78
2021/05/18 01:46:35;;;;;;;0.30;0.30;;;;;;;6.70;81.88;95244.66;5013269;28;20181;-78
2021/05/18 01:49:05;;;;;;;0.77;0.43;;;;;;;6.66;81.63;95251.84;4997036;28;20239;-78
2021/05/18 01:51:35;;;;;;;0.30;0.30;;;;;;;6.68;81.27;95260.28;5013351;28;20207;-77
2021/05/18 01:54:10;;;;;;;0.63;0.30;;;;;;;6.62;80.88;95270.28;5013412;28;20583;-78
2021/05/18 01:56:50;;;;;;;0.93;0.60;;;;;;;6.65;81.15;95265.69;5014299;28;20178;-78
2021/05/18 01:59:19;;;;;;;0.40;0.30;;;;;;;6.61;80.90;95266.06;5013892;28;20175;-78
2021/05/18 02:01:46;;;;;;;0.20;0.20;;;;;;;6.63;81.38;95267.59;4996571;28;20562;-79
2021/05/18 02:04:35;;;;;;;0.70;0.40;;;;;;;6.63;81.20;95271.94;4997075;28;20714;-79
2021/05/18 02:07:06;;;;;;;0.57;0.40;;;;;;;6.61;81.29;95276.41;4997032;28;20207;-77
2021/05/18 02:09:31;;;;;;;0.40;0.40;;;;;;;6.60;81.36;95279.94;4996838;28;20175;-78
2021/05/18 02:11:56;;;;;;;0.90;0.40;;;;;;;6.58;81.58;95274.91;5013190;28;20208;-78
2021/05/18 02:14:32;;;;;;;0.30;0.30;;;;;;;6.55;81.11;95271.78;5012600;28;20218;-79
2021/05/18 02:17:06;;;;;;;0.30;0.30;;;;;;;6.49;81.00;95286.00;4998189;28;20527;-78
2021/05/18 02:20:08;;;;;;;0.50;0.30;;;;;;;6.60;80.90;95285.91;5013517;28;20175;-79
2021/05/18 02:25:24;;;;;;;0.40;0.30;;;;;;;6.60;80.62;95292.84;5012853;28;20211;-78
2021/05/18 02:27:51;;;;;;;1.50;0.30;;;;;;;6.55;80.84;95297.56;5012676;28;20179;-79
2021/05/18 02:30:18;;;;;;;0.43;0.43;;;;;;;6.49;81.39;95294.56;4996253;28;20175;-79
2021/05/18 02:32:44;;;;;;;0.73;0.30;;;;;;;6.49;81.67;95291.97;5012421;28;20781;-78
2021/05/18 02:35:11;;;;;;;0.50;0.30;;;;;;;6.46;81.82;95292.25;4996215;28;20270;-77
2021/05/18 02:37:38;;;;;;;0.50;0.50;;;;;;;6.50;81.82;95292.78;4996375;28;20179;-78
2021/05/18 02:40:05;;;;;;;0.50;0.50;;;;;;;6.48;82.05;95292.94;4996161;28;20537;-79
2021/05/18 02:42:31;;;;;;;1.23;0.50;;;;;;;6.52;82.76;95293.47;5013181;28;20214;-78
2021/05/18 02:45:09;;;;;;;1.53;0.60;;;;;;;6.52;82.36;95294.28;5012819;28;20167;-78
2021/05/18 02:50:19;;;;;;;1.27;0.53;;;;;;;6.58;81.76;95289.56;5012436;28;20190;-78
2021/05/18 02:52:44;;;;;;;1.60;0.67;;;;;;;6.53;82.35;95293.34;5011924;28;20202;-78
2021/05/18 02:55:16;;;;;;;1.80;0.60;;;;;;;6.52;81.79;95294.28;5012471;28;20233;-78
2021/05/18 02:57:43;;;;;;;0.90;0.70;;;;;;;6.47;82.56;95298.22;5012482;28;20190;-78
2021/05/18 03:00:14;;;;;;;0.80;0.80;;;;;;;6.57;81.63;95298.25;5012124;28;20172;-78
2021/05/18 03:02:40;;;;;;;0.60;0.60;;;;;;;6.47;82.05;95299.03;5011816;28;20215;-78
2021/05/18 03:05:06;;;;;;;1.63;0.80;;;;;;;6.49;82.09;95291.97;5011803;28;20205;-77
2021/05/18 03:07:32;;;;;;;1.90;0.70;;;;;;;6.49;81.99;95296.31;5015666;28;20185;-78
2021/05/18 03:09:57;;;;;;;1.97;0.77;;;;;;;6.43;82.33;95297.63;4999433;28;20187;-79
2021/05/18 03:12:22;;;;;;;1.83;0.90;;;;;;;6.46;82.03;95294.00;5015853;28;20183;-78
2021/05/18 03:14:48;;;;;;;1.10;0.80;;;;;;;6.43;82.19;95291.66;4999397;28;20557;-77
2021/05/18 03:17:13;;;;;;;0.80;0.80;;;;;;;6.43;82.10;95294.25;4999487;28;20576;-79
2021/05/18 03:19:39;;;;;;;1.10;0.80;;;;;;;6.45;82.44;95294.97;5015775;28;20353;-77
2021/05/18 03:22:04;;;;;;;2.43;0.70;;;;;;;6.46;82.02;95291.44;4998938;28;20202;-78
2021/05/18 03:24:29;;;;;;;0.87;0.60;;;;;;;6.58;81.31;95289.56;4999070;28;20179;-77
2021/05/18 03:26:55;;;;;;;0.60;0.60;;;;;;;6.55;81.98;95297.56;5015724;28;20234;-77
2021/05/18 03:34:35;;;;;;;1.10;0.60;;;;;;;6.58;81.36;95298.13;5016493;28;20609;-79
2021/05/18 03:37:10;;;;;;;1.33;0.67;;;;;;;6.52;81.56;95303.78;5015489;28;20172;-78
2021/05/18 03:39:36;;;;;;;1.80;0.80;;;;;;;6.51;82.05;95307.31;4999413;28;20300;-79
2021/05/18 03:42:09;;;;;;;1.23;0.70;;;;;;;6.49;81.92;95306.63;4998487;28;20208;-78
2021/05/18 03:52:32;;;;;;;0.73;0.67;;;;;;;6.53;81.63;95308.81;5015036;28;20218;-76
2021/05/18 04:03:17;;;;;;;3.37;0.93;;;;;;;6.59;81.60;95307.50;5014507;28;20217;-77
2021/05/18 04:11:42;;;;;;;1.17;0.70;;;;;;;6.64;81.54;95309.69;5015041;28;20247;-79
2021/05/18 04:19:19;;;;;;;1.60;0.60;;;;;;;6.71;80.05;95315.97;5013738;28;20274;-78
2021/05/18 04:38:37;;;;;;;1.53;0.90;;;;;;;6.81;80.78;95334.91;5014579;28;20257;-77
2021/05/18 04:51:56;;;;;;;2.20;1.27;;;;;;;6.94;82.29;95363.06;5014149;28;20585;-79
2021/05/18 04:59:53;;;;;;;1.43;1.30;;;;;;;6.97;82.58;95376.53;5015689;28;20245;-79
2021/05/18 05:02:52;;;;;;;2.40;1.53;;;;;;;7.02;82.69;95371.78;5013872;28;20214;-78
2021/05/18 05:08:06;;;;;;;2.33;1.20;;;;;;;7.28;82.08;95377.31;5014193;28;20185;-80
2021/05/18 05:15:43;;;;;;;1.47;1.10;;;;;;;7.30;82.10;95392.69;5014311;28;20266;-79
2021/05/18 05:18:11;;;;;;;1.70;1.40;;;;;;;7.33;82.38;95397.56;5015441;28;20183;-78
2021/05/18 05:20:37;;;;;;;2.23;1.20;;;;;;;7.23;82.54;95404.47;4996638;28;20187;-80
2021/05/18 05:23:03;;;;;;;1.57;1.30;;;;;;;7.18;82.94;95396.31;5012356;28;20211;-80
2021/05/18 05:25:28;;;;;;;1.87;1.60;;;;;;;7.12;82.88;95397.66;5017619;28;20654;-78
2021/05/18 05:27:53;;;;;;;1.10;1.00;;;;;;;7.13;82.17;95403.63;5033457;28;20186;-78
2021/05/18 05:30:19;;;;;;;1.30;0.93;;;;;;;7.17;82.56;95411.00;5022597;28;20197;-79
2021/05/18 05:32:44;;;;;;;1.63;0.90;;;;;;;7.07;81.81;95410.97;5031235;28;20416;-80
2021/05/18 05:35:10;;;;;;;0.90;0.70;;;;;;;7.05;81.81;95412.84;5004232;28;20233;-79
2021/05/18 05:37:35;;;;;;;1.30;0.63;;;;;;;7.03;81.86;95408.75;5023182;28;20195;-79
2021/05/18 05:40:00;;;;;;;0.57;0.50;;;;;;;7.12;81.33;95412.34;5027068;28;20237;-77
2021/05/18 05:42:26;;;;;;;1.00;0.50;;;;;;;7.04;81.12;95407.81;5041012;28;20225;-78
2021/05/18 05:44:51;;;;;;;1.40;0.40;;;;;;;7.10;80.62;95410.69;5030775;28;20194;-78
2021/05/18 05:47:18;;;;;;;1.33;0.50;;;;;;;7.10;80.13;95402.94;5032839;28;20218;-78
2021/05/18 05:49:43;;;;;;;0.83;0.60;;;;;;;7.18;79.49;95404.06;5032846;28;20222;-78
2021/05/18 05:52:16;;;;;;;2.33;1.50;;;;;;;7.12;79.16;95407.16;5033253;28;20210;-78
2021/05/18 05:54:41;;;;;;;1.50;0.50;;;;;;;7.27;78.77;95406.69;5032602;28;20185;-78
2021/05/18 05:57:06;;;;;;;1.67;0.40;;;;;;;7.28;78.79;95399.75;5015660;28;20598;-78
2021/05/18 05:59:31;;;;;;;0.47;0.40;;;;;;;7.62;78.27;95406.25;5032749;28;20186;-77
2021/05/18 06:01:59;;;;;;;1.00;0.60;;;;;;;7.76;77.68;95404.22;5032239;28;20275;-78
2021/05/18 06:04:24;;;;;;;1.40;0.73;;;;;;;8.07;77.51;95412.69;5015367;28;20217;-76
2021/05/18 06:06:50;;;;;;;2.23;1.90;;;;;;;8.13;77.10;95404.41;5032226;28;20214;-77
2021/05/18 06:09:15;;;;;;;2.33;1.10;;;;;;;8.37;75.83;95407.41;5030579;28;20213;-77
2021/05/18 06:12:00;;;;;;;1.63;1.00;;;;;;;8.62;75.21;95407.78;5029959;28;20575;-77
2021/05/18 06:47:40;;;;;;;1.03;0.80;;;;;;;10.67;68.40;95433.31;5028110;28;20719;-77
2021/05/18 06:49:45;;;;;;;4.57;1.63;;;;;;;11.08;66.80;95442.22;5024203;28;20198;-76
2021/05/18 06:52:10;;;;;;;3.67;1.00;;;;;;;10.91;67.16;95445.69;5030907;28;20213;-78
2021/05/18 06:54:36;;;;;;;2.77;1.00;;;;;;;10.66;67.50;95447.28;5013641;28;20178;-79
2021/05/18 06:57:05;;;;;;;3.87;1.13;;;;;;;10.53;68.57;95450.28;5031170;28;20186;-77
2021/05/18 07:01:59;;;;;;;2.60;1.60;;;;;;;10.22;69.35;95452.41;5030019;28;20238;-79
2021/05/18 07:04:25;;;;;;;2.27;1.20;;;;;;;9.92;69.71;95454.34;5030467;28;20221;-78
2021/05/18 07:07:04;;;;;;;3.03;1.30;;;;;;;9.48;71.09;95455.13;5030415;28;20548;-79
2021/05/18 07:09:29;;;;;;;5.30;1.50;;;;;;;9.50;71.39;95463.56;5030405;28;20212;-78
2021/05/18 07:11:55;;;;;;;2.73;1.33;;;;;;;9.79;71.42;95459.06;5029873;28;20207;-77
2021/05/18 07:14:20;;;;;;;3.20;1.40;;;;;;;10.07;70.64;95456.44;5030292;28;20261;-78
2021/05/18 07:16:46;;;;;;;2.43;1.40;;;;;;;10.57;69.16;95458.56;5014012;28;20178;-78
2021/05/18 07:19:11;;;;;;;2.60;1.50;;;;;;;12.21;64.38;95456.72;5014387;28;20179;-77
2021/05/18 07:21:37;;;;;;;3.33;1.50;;;;;;;13.95;58.48;95455.34;5030563;28;20206;-77
2021/05/18 07:24:08;;;;;;;5.27;1.40;;;;;;;14.21;57.40;95457.69;5013630;28;20568;-78
2021/05/18 07:26:33;;;;;;;4.60;1.43;;;;;;;13.85;57.24;95453.78;5030676;28;20210;-76
2021/05/18 07:28:58;;;;;;;6.23;1.13;;;;;;;13.43;58.49;95448.03;5013686;28;20205;-78
2021/05/18 07:31:24;;;;;;;3.17;1.30;;;;;;;12.74;59.64;95447.66;5031666;28;20698;-75
2021/05/18 07:33:49;;;;;;;2.13;1.00;;;;;;;12.13;61.48;95454.09;5030256;28;20248;-77
2021/05/18 07:36:14;;;;;;;1.63;1.33;;;;;;;11.65;63.04;95460.72;5029651;28;20241;-77
2021/05/18 07:38:41;;;;;;;3.77;2.00;;;;;;;11.49;64.54;95469.28;5013080;28;20622;-77
2021/05/18 07:41:07;;;;;;;5.10;1.30;;;;;;;11.30;65.05;95464.28;5012678;28;20179;-76
2021/05/18 07:43:33;;;;;;;4.43;1.53;;;;;;;10.85;65.43;95472.25;5030105;28;20293;-79
2021/05/18 07:46:00;;;;;;;4.77;1.37;;;;;;;10.77;65.34;95470.41;5063208;28;20207;-77
2021/05/18 07:48:36;;;;;;;4.23;2.20;;;;;;;10.14;67.42;95465.25;5013443;28;20189;-77
2021/05/18 08:07:24;;;;;;;3.00;1.10;;;;;;;10.62;63.76;95448.56;4995632;28;20271;-78
2021/05/18 08:09:55;;;;;;;2.57;1.40;;;;;;;11.30;63.42;95440.88;4993232;28;20198;-76
2021/05/18 08:12:21;;;;;;;3.30;1.30;;;;;;;11.24;62.61;95447.53;4992669;28;20696;-76
2021/05/18 08:17:30;;;;;;;2.53;1.00;;;;;;;11.41;62.55;95445.00;5009232;28;20187;-75
2021/05/18 08:23:05;;;;;;;3.57;1.90;;;;;;;11.45;62.12;95454.13;4992964;28;20628;-78
2021/05/18 08:55:42;;;;;;;5.90;1.53;;;;;;;10.19;69.51;95487.22;5031444;28;20583;-76
2021/05/18 09:44:08;;;;;;;7.30;1.27;;;;;;;10.77;69.11;95436.63;5031273;28;20289;-76
2021/05/18 10:35:52;;;;;;;1.27;0.70;;;;;;;12.58;55.04;95395.53;5032121;28;20657;-78
2021/05/18 10:38:28;;;;;;;4.47;1.23;;;;;;;13.03;55.15;95410.63;5030507;28;20190;-79
2021/05/18 10:41:12;;;;;;;3.17;0.97;;;;;;;13.19;54.53;95400.22;5015806;28;20213;-78
2021/05/18 10:43:39;;;;;;;1.73;0.93;;;;;;;13.41;54.17;95414.31;5029136;28;20581;-79
2021/05/18 10:46:12;;;;;;;2.93;1.07;;;;;;;13.05;54.56;95424.31;5046672;28;20185;-78
2021/05/18 10:48:38;;;;;;;2.40;0.83;;;;;;;13.19;54.12;95410.63;5012528;28;20186;-79
2021/05/18 10:51:30;;;;;;;1.33;0.70;;;;;;;13.28;53.06;95414.03;5030684;28;20320;-78
2021/05/18 10:54:18;;;;;;;3.57;0.77;;;;;;;13.32;52.79;95407.50;5031111;28;20187;-78
2021/05/18 10:57:02;;;;;;;1.57;0.70;;;;;;;13.47;50.79;95403.22;5018843;28;20329;-79
2021/05/18 10:59:34;;;;;;;3.50;2.03;;;;;;;13.69;49.98;95416.47;5030985;28;20202;-79
2021/05/18 11:02:23;;;;;;;2.60;0.90;;;;;;;13.76;51.01;95407.81;5014243;28;20229;-78
2021/05/18 11:04:50;;;;;;;1.20;0.30;;;;;;;12.98;48.69;95433.75;5017239;28;20221;-77
2021/05/18 11:07:20;;;;;;;0.97;0.30;;;;;;;12.50;54.40;95439.81;5064127;28;20180;-78
2021/05/18 11:09:45;;;;;;;2.40;0.37;;;;;;;11.91;55.42;95419.03;5015494;28;20646;-78
2021/05/18 11:12:16;;;;;;;1.07;0.30;;;;;;;10.92;55.47;95416.13;5031503;28;20209;-78
2021/05/18 11:14:45;;;;;;;4.83;0.50;;;;;;;11.05;58.54;95406.16;5065583;28;20178;-77
2021/05/18 11:17:13;;;;;;;1.60;0.60;;;;;;;11.71;60.20;95402.06;5014353;28;20178;-78
2021/05/18 11:25:36;;;;;;;1.97;0.60;;;;;;;12.97;56.65;95401.66;5029905;28;20682;-78
2021/05/18 11:28:16;;;;;;;2.40;0.77;;;;;;;13.25;55.59;95393.50;5031930;28;20193;-77
2021/05/18 11:30:43;;;;;;;2.10;0.77;;;;;;;13.37;54.61;95397.38;5034645;28;20233;-78
2021/05/18 11:33:09;;;;;;;1.30;0.67;;;;;;;13.10;52.30;95395.97;5050875;28;20281;-78
2021/05/18 11:35:35;;;;;;;3.40;1.80;;;;;;;13.22;52.88;95379.00;5034199;28;20266;-78
2021/05/18 11:38:00;;;;;;;4.77;2.17;;;;;;;12.73;51.47;95391.31;5033937;28;20186;-79
2021/05/18 11:40:25;;;;;;;2.67;0.63;;;;;;;12.39;53.14;95381.06;5033354;28;20708;-77
2021/05/18 11:42:51;;;;;;;2.50;1.43;;;;;;;12.73;53.69;95393.91;5017312;28;20198;-78
2021/05/18 11:45:20;;;;;;;2.60;1.10;;;;;;;13.10;52.21;95385.53;5034739;28;20183;-77
2021/05/18 11:47:49;;;;;;;2.40;1.03;;;;;;;13.50;51.97;95378.56;5034296;28;20175;-78
2021/05/18 11:50:24;;;;;;;1.50;0.60;;;;;;;13.26;51.76;95367.28;5034543;28;20205;-78
2021/05/18 11:52:51;;;;;;;3.00;0.80;;;;;;;13.07;52.11;95392.84;5049837;28;20280;-75
2021/05/18 11:55:18;;;;;;;4.53;2.00;;;;;;;12.67;57.77;95411.00;5033846;28;20240;-80
2021/05/18 11:57:44;;;;;;;3.60;1.10;;;;;;;11.63;62.52;95427.06;5033990;28;20249;-80
2021/05/18 12:00:35;;;;;;;1.93;1.23;;;;;;;11.20;61.82;95402.00;5034528;28;20179;-79
2021/05/18 12:03:06;;;;;;;2.97;1.10;;;;;;;10.77;61.62;95395.06;5019696;28;20248;-79
2021/05/18 12:05:32;;;;;;;4.40;1.23;;;;;;;10.55;64.23;95388.63;5017406;28;20273;-80
2021/05/18 12:07:58;;;;;;;1.50;0.60;;;;;;;10.61;65.15;95382.81;5035428;28;20791;-81
2021/05/18 12:10:28;;;;;;;4.33;0.90;;;;;;;11.25;64.57;95378.16;5018537;28;20179;-79
2021/05/18 12:12:53;;;;;;;2.13;0.50;;;;;;;11.67;60.36;95361.72;5033886;28;20262;-80
2021/05/18 12:15:19;;;;;;;2.90;1.03;;;;;;;12.08;62.64;95360.84;5034449;28;20721;-80
2021/05/18 12:17:44;;;;;;;2.23;0.70;;;;;;;12.34;62.32;95362.50;5034245;28;20182;-79
2021/05/18 12:20:15;;;;;;;1.90;0.70;;;;;;;12.70;61.11;95362.97;5034097;28;20178;-80
2021/05/18 12:22:41;;;;;;;3.73;0.80;;;;;;;12.54;59.40;95363.78;5033103;28;20701;-80
2021/05/18 12:25:08;;;;;;;2.47;0.70;;;;;;;12.85;61.03;95355.28;5018653;28;20231;-80
2021/05/18 12:27:44;;;;;;;1.70;0.50;;;;;;;13.55;59.45;95358.84;5034780;28;20182;-80
2021/05/18 12:30:09;;;;;;;1.23;0.47;;;;;;;13.60;58.08;95356.53;5018194;28;20185;-80
2021/05/18 12:32:35;;;;;;;1.83;0.50;;;;;;;13.33;52.53;95356.97;5033964;28;20194;-79
2021/05/18 12:35:03;;;;;;;1.80;0.40;;;;;;;12.55;50.97;95352.41;5034965;28;20181;-80
2021/05/18 12:37:47;;;;;;;1.60;0.50;;;;;;;12.13;52.38;95350.78;5035649;28;20227;-79
2021/05/18 12:40:18;;;;;;;2.23;0.67;;;;;;;12.26;54.83;95354.69;5034079;28;20175;-80
2021/05/18 12:42:45;;;;;;;1.23;0.60;;;;;;;12.21;53.00;95351.75;5067883;28;20740;-80
2021/05/18 12:45:21;;;;;;;2.43;0.43;;;;;;;12.12;51.17;95340.53;5032675;28;20257;-79
2021/05/18 12:47:51;;;;;;;2.00;0.70;;;;;;;12.83;51.26;95341.63;5029972;28;20209;-80
2021/05/18 12:50:17;;;;;;;2.33;0.50;;;;;;;13.40;51.40;95346.66;5033457;28;20598;-80
2021/05/18 12:52:44;;;;;;;1.67;0.67;;;;;;;13.19;50.10;95337.63;5016662;28;20206;-79
2021/05/18 12:55:29;;;;;;;2.73;0.40;;;;;;;13.26;52.47;95350.81;5017391;28;20234;-79
2021/05/18 12:58:03;;;;;;;1.90;0.50;;;;;;;13.34;51.55;95350.78;5017200;28;20178;-80
2021/05/18 13:00:36;;;;;;;4.20;0.70;;;;;;;12.85;49.24;95350.06;5016399;28;20190;-80
2021/05/18 13:03:19;;;;;;;2.33;0.80;;;;;;;12.88;50.81;95345.34;5019128;28;20198;-78
2021/05/18 13:05:48;;;;;;;1.53;0.53;;;;;;;12.76;50.20;95363.13;5049078;28;20187;-78
2021/05/18 13:08:16;;;;;;;3.57;0.70;;;;;;;13.05;51.64;95362.56;5032430;28;20712;-77
2021/05/18 13:13:09;;;;;;;1.07;0.60;;;;;;;12.58;57.45;95379.91;5032473;28;20264;-80
2021/05/18 13:15:35;;;;;;;1.57;0.60;;;;;;;12.32;60.03;95385.28;5033043;28;20220;-78
2021/05/18 13:18:03;;;;;;;2.17;0.60;;;;;;;12.26;59.03;95391.13;5032008;28;20183;-78
2021/05/18 13:20:36;;;;;;;1.13;0.40;;;;;;;11.78;59.90;95395.25;5065455;28;20683;-78
2021/05/18 13:23:03;;;;;;;3.20;0.67;;;;;;;11.39;61.33;95400.13;5028547;28;20202;-79
2021/05/18 13:28:12;;;;;;;1.10;0.50;;;;;;;9.75;66.80;95392.06;5033677;28;20190;-79
2021/05/18 13:30:38;;;;;;;0.40;0.30;;;;;;;9.82;69.04;95396.53;5012436;28;20211;-77
2021/05/18 13:33:07;;;;;;;0.67;0.30;;;;;;;10.37;68.42;95380.84;5041475;28;20277;-78
2021/05/18 13:35:33;;;;;;;0.77;0.30;;;;;;;11.13;66.05;95377.63;5013191;28;20682;-78
2021/05/18 13:37:58;;;;;;;2.50;0.77;;;;;;;11.74;66.71;95380.91;5064268;28;20198;-77
2021/05/18 13:40:25;;;;;;;0.70;0.50;;;;;;;12.47;63.25;95381.06;5064188;28;20204;-78
2021/05/18 13:42:54;;;;;;;2.63;0.63;;;;;;;12.30;62.06;95371.63;5015312;28;20728;-77
2021/05/18 13:45:25;;;;;;;2.40;0.50;;;;;;;12.45;63.26;95364.75;5031465;28;20240;-78
2021/05/18 13:47:53;;;;;;;3.23;1.50;;;;;;;12.79;62.16;95367.19;5015165;28;20641;-78
2021/05/18 13:50:19;;;;;;;1.60;0.67;;;;;;;12.59;61.00;95366.72;5014926;28;20274;-78
2021/05/18 13:52:45;;;;;;;0.60;0.50;;;;;;;13.12;61.31;95354.06;5014663;28;20244;-78
2021/05/18 13:55:11;;;;;;;2.30;0.60;;;;;;;13.47;59.97;95356.25;5015596;28;20224;-77
2021/05/18 13:57:36;;;;;;;1.93;0.80;;;;;;;13.55;59.13;95361.44;5048465;28;20182;-78
2021/05/18 14:00:09;;;;;;;1.53;0.63;;;;;;;13.05;59.58;95367.78;5032071;28;20194;-78
2021/05/18 14:02:37;;;;;;;1.87;0.60;;;;;;;12.38;58.82;95374.22;5031170;28;20202;-79
2021/05/18 14:05:04;;;;;;;1.33;0.50;;;;;;;12.20;59.53;95363.97;5031852;28;20547;-78
2021/05/18 14:08:23;;;;;;;0.50;0.40;;;;;;;12.09;59.97;95354.66;5015316;28;20186;-79
2021/05/18 14:11:16;;;;;;;0.40;0.40;;;;;;;11.79;60.25;95358.66;5029633;28;20206;-79
2021/05/18 14:13:43;;;;;;;0.50;0.30;;;;;;;11.82;60.44;95368.78;5015407;28;20182;-79
2021/05/18 14:16:10;;;;;;;1.77;0.53;;;;;;;11.70;61.70;95383.03;5015943;28;20181;-80
2021/05/18 14:18:36;;;;;;;0.90;0.30;;;;;;;11.77;61.88;95359.81;5032996;28;20619;-77
2021/05/18 14:21:03;;;;;;;1.60;0.90;;;;;;;11.95;61.65;95362.31;5033475;28;20203;-77
2021/05/18 14:23:36;;;;;;;1.70;0.40;;;;;;;12.41;60.74;95350.44;5015410;28;20214;-81
2021/05/18 14:26:02;;;;;;;0.80;0.40;;;;;;;12.70;59.03;95353.34;5016489;28;20179;-81
2021/05/18 14:28:27;;;;;;;1.50;0.30;;;;;;;13.02;59.45;95336.84;5030609;28;20340;-79
2021/05/18 14:30:52;;;;;;;0.30;0.30;;;;;;;13.51;59.08;95343.69;5031611;28;20182;-80
2021/05/18 14:33:18;;;;;;;1.17;0.40;;;;;;;13.75;59.36;95342.75;5015086;28;20696;-79
2021/05/18 14:35:43;;;;;;;0.97;0.50;;;;;;;13.70;55.73;95335.44;5031631;28;20182;-80
2021/05/18 14:38:17;;;;;;;0.70;0.40;;;;;;;14.06;55.81;95333.09;5031652;28;20642;-80
2021/05/18 14:45:45;;;;;;;2.00;0.47;;;;;;;14.23;51.93;95328.56;5062439;28;20209;-79
2021/05/18 14:53:36;;;;;;;2.27;0.60;;;;;;;14.07;52.07;95320.84;5031391;28;20225;-80
2021/05/18 14:54:02;;;;;;;2.83;0.50;;;;;;;14.18;53.42;95313.41;5031792;28;20256;-79
2021/05/18 14:56:27;;;;;;;2.33;0.80;;;;;;;13.97;52.25;95305.41;5031266;28;20228;-80
2021/05/18 14:58:52;;;;;;;0.77;0.63;;;;;;;13.79;52.30;95318.75;5031297;28;20182;-78
2021/05/18 15:01:18;;;;;;;2.10;0.60;;;;;;;14.01;52.14;95311.91;5030165;28;20669;-79
2021/05/18 15:03:43;;;;;;;2.93;0.70;;;;;;;13.63;52.06;95312.81;5016862;28;20238;-80
2021/05/18 15:06:08;;;;;;;1.00;0.70;;;;;;;13.87;52.88;95321.31;5036434;28;20188;-80
2021/05/18 15:08:35;;;;;;;3.27;1.00;;;;;;;13.53;52.17;95323.47;5036743;28;20218;-80
2021/05/18 15:11:03;;;;;;;2.10;0.60;;;;;;;12.82;54.22;95345.22;5019271;28;20217;-80
2021/05/18 15:13:29;;;;;;;2.30;0.50;;;;;;;12.36;57.52;95360.53;5019054;28;20194;-81
2021/05/18 15:15:54;;;;;;;0.83;0.40;;;;;;;11.62;58.55;95360.41;5051521;28;20178;-77
2021/05/18 15:18:20;;;;;;;2.27;0.60;;;;;;;10.87;61.85;95369.84;5035758;28;20182;-79
2021/05/18 15:20:45;;;;;;;1.43;0.50;;;;;;;10.56;63.57;95366.88;5034116;28;20174;-79
2021/05/18 15:23:10;;;;;;;1.70;0.57;;;;;;;10.21;66.67;95352.13;5017367;28;20264;-78
2021/05/18 15:25:36;;;;;;;1.80;0.80;;;;;;;10.57;66.52;95362.50;5033646;28;20187;-78
2021/05/18 15:28:01;;;;;;;1.23;0.60;;;;;;;10.99;66.21;95355.59;5017337;28;20525;-77
2021/05/18 15:30:26;;;;;;;1.50;0.50;;;;;;;11.25;65.00;95352.16;5066872;28;20261;-77
2021/05/18 15:32:52;;;;;;;1.40;0.63;;;;;;;11.12;66.08;95347.38;5017936;28;20209;-78
2021/05/18 15:35:17;;;;;;;0.80;0.53;;;;;;;11.29;65.43;95354.28;5037343;28;20179;-78
2021/05/18 15:37:44;;;;;;;1.10;0.87;;;;;;;11.28;66.11;95352.66;5037157;28;20197;-78
2021/05/18 15:40:10;;;;;;;4.27;3.23;;;;;;;11.47;65.02;95350.75;5068461;28;20189;-79
2021/05/18 15:42:36;;;;;;;1.10;1.00;;;;;;;11.29;64.83;95345.66;5027698;28;20309;-78
2021/05/18 15:45:05;;;;;;;2.67;0.80;;;;;;;11.18;64.92;95353.75;5034389;28;20183;-80
2021/05/18 15:47:32;;;;;;;2.27;1.10;;;;;;;11.20;65.85;95357.00;5035022;28;20186;-80
2021/05/18 15:49:57;;;;;;;3.80;1.13;;;;;;;11.27;65.62;95347.59;5036356;28;20190;-79
2021/05/18 15:52:23;;;;;;;1.77;1.67;;;;;;;11.01;65.76;95352.84;5034506;28;20216;-78
2021/05/18 15:54:49;;;;;;;1.30;0.70;;;;;;;10.52;65.33;95344.78;5019313;28;20190;-80
2021/05/18 15:57:15;;;;;;;2.33;1.50;;;;;;;10.60;67.02;95338.81;5019331;28;20209;-79
2021/05/18 15:59:43;;;;;;;3.67;0.90;;;;;;;10.76;66.34;95331.13;5031975;28;20236;-79
2021/05/18 16:02:08;;;;;;;2.10;1.00;;;;;;;11.10;66.63;95315.53;5033513;28;20618;-80
2021/05/18 16:04:33;;;;;;;1.97;1.13;;;;;;;11.63;65.77;95311.81;5033299;28;20182;-80
2021/05/18 16:07:06;;;;;;;1.37;0.80;;;;;;;12.04;63.95;95315.31;5018923;28;20174;-78
2021/05/18 16:09:31;;;;;;;4.53;1.17;;;;;;;12.38;63.86;95335.97;5034485;28;20292;-80
2021/05/18 16:11:57;;;;;;;2.60;1.50;;;;;;;12.50;64.60;95344.25;5033305;28;20229;-79
2021/05/18 16:14:22;;;;;;;3.20;1.07;;;;;;;12.01;65.86;95336.44;5031701;28;20210;-79
2021/05/18 16:16:48;;;;;;;6.07;3.00;;;;;;;12.02;67.05;95350.28;5016478;28;20901;-80
2021/05/18 16:19:14;;;;;;;3.50;3.17;;;;;;;11.87;66.75;95342.28;5034237;28;20183;-79
2021/05/18 16:21:39;;;;;;;4.90;3.97;;;;;;;11.66;67.88;95354.88;5015773;28;20217;-79
2021/05/18 16:24:05;;;;;;;3.83;2.77;;;;;;;11.50;67.72;95361.69;5033098;28;20202;-79
2021/05/18 16:26:33;;;;;;;4.93;2.37;;;;;;;11.21;68.47;95369.03;5032474;28;20186;-80
2021/05/18 16:28:59;;;;;;;6.07;1.97;;;;;;;11.09;69.30;95396.25;5032890;28;20186;-79
2021/05/18 16:31:28;;;;;;;2.00;0.80;;;;;;;10.34;68.87;95412.31;5015670;28;20265;-79
2021/05/18 16:33:54;;;;;;;2.93;1.30;;;;;;;9.69;70.58;95405.63;5015939;28;20202;-81